Time;durP1;ratioP1;P1;durP2;ratioP2;P2;SDS_P1;SDS_P2;PMS_P1;PMS_P2;Temp;Humidity;BMP_temperature;BMP_pressure;BME280_temperature;BME280_humidity;BME280_pressure;Samples;Min_cycle;Max_cycle;Signal;HPM_P1;HPM_P2
2022/08/29 00:01:50;;;;;;;;;;;;;;;26.80;41.09;100556.31;5075250;28;1897;-44
2022/08/29 00:04:15;;;;;;;;;;;;;;;25.33;41.11;100551.66;5077755;28;1091;-43
2022/08/29 00:06:41;;;;;;;;;;;;;;;24.53;44.79;100554.22;5076749;28;898;-42
2022/08/29 00:09:06;;;;;;;;;;;;;;;25.52;40.96;100552.25;5072018;28;1001;-41
2022/08/29 00:11:31;;;;;;;;;;;;;;;25.95;40.10;100541.06;5070328;28;1095;-45
2022/08/29 00:13:56;;;;;;;;;;;;;;;26.21;40.40;100550.63;5069608;28;1032;-43
2022/08/29 00:16:22;;;;;;;;;;;;;;;26.43;39.30;100547.25;5073730;28;1084;-43
2022/08/29 00:18:47;;;;;;;;;;;;;;;26.53;39.15;100553.22;5070154;28;1091;-46
2022/08/29 00:21:12;;;;;;;;;;;;;;;26.73;39.11;100552.69;5074764;28;1048;-43
2022/08/29 00:23:38;;;;;;;;;;;;;;;26.61;39.21;100550.44;5072982;28;1977;-43
2022/08/29 00:26:03;;;;;;;;;;;;;;;26.73;38.46;100553.53;5076322;28;1016;-43
2022/08/29 00:28:28;;;;;;;;;;;;;;;26.89;38.47;100562.47;5075733;28;1151;-44
2022/08/29 00:30:54;;;;;;;;;;;;;;;26.47;37.77;100562.91;5072010;28;904;-44
2022/08/29 00:33:19;;;;;;;;;;;;;;;24.41;45.41;100557.28;5078257;28;1237;-43
2022/08/29 00:35:44;;;;;;;;;;;;;;;25.41;40.81;100559.72;5066182;28;976;-43
2022/08/29 00:38:10;;;;;;;;;;;;;;;25.72;40.75;100562.59;5071774;28;1072;-44
2022/08/29 00:40:40;;;;;;;;;;;;;;;26.27;40.73;100565.25;5069427;28;1032;-42
2022/08/29 00:43:06;;;;;;;;;;;;;;;26.47;38.43;100562.06;5073182;28;1897;-42
2022/08/29 00:45:31;;;;;;;;;;;;;;;26.61;38.40;100563.94;5071457;28;1414;-42
2022/08/29 00:47:58;;;;;;;;;;;;;;;26.72;38.35;100556.41;5050127;28;977;-47
2022/08/29 00:50:33;;;;;;;;;;;;;;;26.50;38.88;100557.13;5071497;28;1084;-42
2022/08/29 00:52:59;;;;;;;;;;;;;;;26.57;41.13;100562.63;5050559;28;914;-44
2022/08/29 00:55:25;;;;;;;;;;;;;;;24.76;41.60;100556.19;5055744;28;1076;-44
2022/08/29 00:57:52;;;;;;;;;;;;;;;24.92;42.11;100553.50;5073066;28;1052;-43
2022/08/29 01:00:17;;;;;;;;;;;;;;;25.57;42.83;100563.34;5056375;28;1076;-44
2022/08/29 01:02:43;;;;;;;;;;;;;;;26.09;38.63;100552.91;5075885;28;1973;-46
2022/08/29 01:05:12;;;;;;;;;;;;;;;26.11;39.82;100561.66;5072601;28;1147;-41
2022/08/29 01:07:37;;;;;;;;;;;;;;;26.56;37.74;100560.13;5063644;28;1441;-41
2022/08/29 01:10:03;;;;;;;;;;;;;;;26.30;38.82;100548.69;5053722;28;1562;-41
2022/08/29 01:12:29;;;;;;;;;;;;;;;26.38;41.02;100556.75;5069882;28;1001;-40
2022/08/29 01:14:55;;;;;;;;;;;;;;;24.67;41.51;100558.91;5049925;28;1036;-42
2022/08/29 01:17:41;;;;;;;;;;;;;;;25.06;41.52;100551.09;5067111;28;1013;-41
2022/08/29 01:20:18;;;;;;;;;;;;;;;25.53;42.21;100548.53;5069669;28;1088;-40
2022/08/29 01:22:43;;;;;;;;;;;;;;;26.16;38.32;100548.47;5044059;28;1910;-42
2022/08/29 01:25:15;;;;;;;;;;;;;;;26.24;38.91;100549.44;5068380;28;1212;-41
2022/08/29 01:27:42;;;;;;;;;;;;;;;26.34;40.77;100546.50;5063903;28;1088;-41
2022/08/29 01:30:07;;;;;;;;;;;;;;;26.46;38.27;100544.22;5072910;28;1119;-43
2022/08/29 01:32:33;;;;;;;;;;;;;;;26.42;39.32;100538.34;5076501;28;1059;-41
2022/08/29 01:34:59;;;;;;;;;;;;;;;24.66;43.96;100540.25;5063584;28;1048;-41
2022/08/29 01:37:24;;;;;;;;;;;;;;;25.37;40.63;100536.84;5065108;28;1024;-42
2022/08/29 01:39:49;;;;;;;;;;;;;;;25.77;39.89;100541.34;5053235;28;1033;-41
2022/08/29 01:42:16;;;;;;;;;;;;;;;26.44;37.82;100538.16;5065263;28;1897;-43
2022/08/29 01:44:46;;;;;;;;;;;;;;;26.35;38.20;100540.94;5070070;28;1160;-41
2022/08/29 01:47:11;;;;;;;;;;;;;;;26.24;40.87;100542.16;5069982;28;1016;-41
2022/08/29 01:49:37;;;;;;;;;;;;;;;26.54;37.59;100541.44;5049147;28;1025;-41
2022/08/29 01:52:02;;;;;;;;;;;;;;;26.59;37.33;100544.38;5066258;28;1324;-41
2022/08/29 01:54:28;;;;;;;;;;;;;;;26.68;39.63;100537.06;5058722;28;1022;-42
2022/08/29 01:56:53;;;;;;;;;;;;;;;25.47;39.56;100533.09;5064063;28;1012;-43
2022/08/29 01:59:20;;;;;;;;;;;;;;;25.00;41.37;100528.44;5073948;28;1111;-42
2022/08/29 02:01:51;;;;;;;;;;;;;;;25.82;40.88;100530.03;5067091;28;1897;-42
2022/08/29 02:04:16;;;;;;;;;;;;;;;26.09;38.05;100525.94;5075035;28;1059;-44
2022/08/29 02:06:41;;;;;;;;;;;;;;;26.11;39.56;100531.19;5073854;28;1218;-44
2022/08/29 02:09:07;;;;;;;;;;;;;;;26.59;37.15;100530.91;5075869;28;1083;-42
2022/08/29 02:11:34;;;;;;;;;;;;;;;26.34;38.14;100533.84;5067536;28;1216;-42
2022/08/29 02:14:00;;;;;;;;;;;;;;;26.44;40.46;100532.75;5066909;28;1013;-43
2022/08/29 02:16:26;;;;;;;;;;;;;;;24.98;40.42;100526.91;5070541;28;1142;-41
2022/08/29 02:18:51;;;;;;;;;;;;;;;25.06;41.25;100524.19;5065123;28;867;-42
2022/08/29 02:21:17;;;;;;;;;;;;;;;25.71;42.02;100532.13;5072357;28;1100;-41
2022/08/29 02:23:42;;;;;;;;;;;;;;;26.06;37.78;100536.28;5069859;28;1960;-43
2022/08/29 02:26:08;;;;;;;;;;;;;;;26.40;37.59;100532.28;5074006;28;1016;-42
2022/08/29 02:28:34;;;;;;;;;;;;;;;26.73;36.89;100536.50;5072654;28;1147;-43
2022/08/29 02:31:00;;;;;;;;;;;;;;;26.66;37.71;100533.69;5071013;28;997;-42
2022/08/29 02:33:25;;;;;;;;;;;;;;;26.51;39.68;100531.81;5075374;28;1119;-42
2022/08/29 02:35:52;;;;;;;;;;;;;;;26.04;39.88;100528.38;5069429;28;969;-42
2022/08/29 02:38:17;;;;;;;;;;;;;;;25.47;42.69;100531.25;5069974;28;1028;-39
2022/08/29 02:40:42;;;;;;;;;;;;;;;25.85;40.62;100526.97;5065591;28;1020;-41
2022/08/29 02:43:08;;;;;;;;;;;;;;;26.14;39.02;100528.13;5068512;28;1963;-39
2022/08/29 02:45:36;;;;;;;;;;;;;;;26.30;39.25;100532.50;5076073;28;1080;-41
2022/08/29 02:48:02;;;;;;;;;;;;;;;26.35;38.28;100532.00;5065339;28;950;-41
2022/08/29 02:50:28;;;;;;;;;;;;;;;26.41;37.76;100536.63;5068676;28;1028;-40
2022/08/29 02:52:53;;;;;;;;;;;;;;;26.36;40.99;100539.06;5068004;28;1009;-40
2022/08/29 02:55:19;;;;;;;;;;;;;;;26.43;38.00;100534.59;5067606;28;845;-41
2022/08/29 02:57:44;;;;;;;;;;;;;;;26.35;38.51;100540.94;5071480;28;1044;-40
2022/08/29 03:00:11;;;;;;;;;;;;;;;25.40;42.77;100538.34;5065813;28;1084;-45
2022/08/29 03:02:37;;;;;;;;;;;;;;;25.66;40.72;100542.59;5073496;28;1894;-44
2022/08/29 03:05:02;;;;;;;;;;;;;;;25.78;40.97;100546.56;5072655;28;1155;-44
2022/08/29 03:07:28;;;;;;;;;;;;;;;25.95;39.43;100549.16;5071485;28;939;-43
2022/08/29 03:09:53;;;;;;;;;;;;;;;26.02;39.25;100543.88;5075275;28;1238;-44
2022/08/29 03:12:19;;;;;;;;;;;;;;;26.17;39.13;100552.00;5069229;28;1438;-43
2022/08/29 03:14:44;;;;;;;;;;;;;;;26.09;36.56;100554.78;5068975;28;1429;-45
2022/08/29 03:17:09;;;;;;;;;;;;;;;25.79;38.18;100553.63;5065866;28;989;-43
2022/08/29 03:19:34;;;;;;;;;;;;;;;24.45;42.40;100561.31;5069340;28;940;-43
2022/08/29 03:22:00;;;;;;;;;;;;;;;25.51;39.73;100556.78;5067867;28;1905;-45
2022/08/29 03:24:25;;;;;;;;;;;;;;;25.77;36.95;100554.84;5072276;28;1040;-45
2022/08/29 03:26:50;;;;;;;;;;;;;;;26.07;40.07;100565.75;5070488;28;1207;-45
2022/08/29 03:29:16;;;;;;;;;;;;;;;26.12;37.47;100560.66;5075783;28;1095;-44
2022/08/29 03:31:41;;;;;;;;;;;;;;;26.31;37.75;100560.31;5077298;28;1020;-44
2022/08/29 03:34:06;;;;;;;;;;;;;;;26.14;37.40;100560.47;5077990;28;1088;-44
2022/08/29 03:36:32;;;;;;;;;;;;;;;26.14;37.83;100560.47;5078904;28;1032;-42
2022/08/29 03:38:57;;;;;;;;;;;;;;;26.35;38.19;100567.91;5068638;28;961;-44
2022/08/29 03:41:23;;;;;;;;;;;;;;;24.72;40.87;100566.50;5071075;28;992;-47
2022/08/29 03:43:49;;;;;;;;;;;;;;;24.89;40.60;100566.47;5067599;28;1975;-47
2022/08/29 03:46:14;;;;;;;;;;;;;;;25.68;39.66;100565.66;5078594;28;1147;-45
2022/08/29 03:48:39;;;;;;;;;;;;;;;25.78;38.81;100570.81;5072253;28;961;-42
2022/08/29 03:51:05;;;;;;;;;;;;;;;25.95;38.17;100575.25;5070699;28;1067;-43
2022/08/29 03:53:31;;;;;;;;;;;;;;;26.23;37.91;100580.94;5070456;28;1071;-43
2022/08/29 03:55:56;;;;;;;;;;;;;;;26.28;38.05;100583.09;5066288;28;1233;-49
2022/08/29 03:58:21;;;;;;;;;;;;;;;26.38;37.82;100574.78;5070806;28;1128;-43
2022/08/29 04:00:47;;;;;;;;;;;;;;;26.27;37.82;100586.81;5075414;28;1079;-43
2022/08/29 04:03:12;;;;;;;;;;;;;;;26.16;37.29;100585.34;5073521;28;1964;-43
2022/08/29 04:05:37;;;;;;;;;;;;;;;25.09;40.65;100577.66;5076724;28;965;-44
2022/08/29 04:08:02;;;;;;;;;;;;;;;25.75;39.54;100579.25;5076185;28;1136;-44
2022/08/29 04:10:29;;;;;;;;;;;;;;;26.26;38.37;100580.56;5068757;28;1263;-45
2022/08/29 04:12:54;;;;;;;;;;;;;;;26.43;37.66;100583.16;5078442;28;961;-50
2022/08/29 04:15:19;;;;;;;;;;;;;;;26.41;37.77;100583.34;5046145;28;2524;-49
2022/08/29 04:17:45;;;;;;;;;;;;;;;26.40;37.58;100595.16;5069179;28;1111;-46
2022/08/29 04:20:10;;;;;;;;;;;;;;;26.52;36.97;100597.41;5071118;28;842;-43
2022/08/29 04:22:36;;;;;;;;;;;;;;;26.48;36.50;100591.53;5072743;28;1910;-44
2022/08/29 04:25:02;;;;;;;;;;;;;;;26.57;37.01;100588.75;5074836;28;1036;-44
2022/08/29 04:27:27;;;;;;;;;;;;;;;26.61;37.14;100593.59;5075967;28;969;-45
2022/08/29 04:29:52;;;;;;;;;;;;;;;26.68;37.12;100591.00;5075501;28;1167;-42
2022/08/29 04:32:19;;;;;;;;;;;;;;;26.80;37.46;100593.25;5073637;28;894;-41
2022/08/29 04:34:44;;;;;;;;;;;;;;;26.80;37.70;100595.94;5073847;28;1468;-41
2022/08/29 04:37:09;;;;;;;;;;;;;;;26.87;37.09;100595.06;5069348;28;988;-42
2022/08/29 04:39:35;;;;;;;;;;;;;;;26.78;37.65;100588.88;5070764;28;969;-43
2022/08/29 04:42:00;;;;;;;;;;;;;;;26.89;36.99;100592.97;5069787;28;1905;-43
2022/08/29 04:44:25;;;;;;;;;;;;;;;27.11;36.94;100595.00;5066749;28;2415;-42
2022/08/29 04:46:50;;;;;;;;;;;;;;;27.20;36.97;100595.72;5071402;28;953;-43
2022/08/29 04:49:16;;;;;;;;;;;;;;;26.97;34.77;100592.06;5070682;28;969;-42
2022/08/29 04:51:41;;;;;;;;;;;;;;;27.24;35.61;100597.84;5068159;28;1059;-41
2022/08/29 04:54:06;;;;;;;;;;;;;;;27.41;35.47;100600.34;5073589;28;1083;-41
2022/08/29 04:56:32;;;;;;;;;;;;;;;27.49;35.98;100602.13;5069745;28;1140;-42
2022/08/29 04:58:57;;;;;;;;;;;;;;;27.53;35.85;100599.88;5074604;28;961;-42
2022/08/29 05:01:23;;;;;;;;;;;;;;;27.50;35.86;100601.94;5073061;28;1095;-41
2022/08/29 05:03:48;;;;;;;;;;;;;;;27.04;32.16;100597.59;5069906;28;1906;-43
2022/08/29 05:06:14;;;;;;;;;;;;;;;27.26;33.54;100603.91;5057483;28;1024;-40
2022/08/29 05:08:40;;;;;;;;;;;;;;;27.34;33.19;100602.13;5059485;28;845;-41
2022/08/29 05:11:08;;;;;;;;;;;;;;;27.29;33.27;100599.16;5070658;28;1125;-42
2022/08/29 05:13:33;;;;;;;;;;;;;;;27.66;33.91;100601.91;5066343;28;2453;-40
2022/08/29 05:15:58;;;;;;;;;;;;;;;27.83;34.88;100603.34;5072394;28;1017;-42
2022/08/29 05:18:24;;;;;;;;;;;;;;;28.04;35.70;100606.28;5070085;28;992;-40
2022/08/29 05:20:49;;;;;;;;;;;;;;;28.13;34.68;100607.00;5068790;28;858;-40
2022/08/29 05:23:15;;;;;;;;;;;;;;;28.18;34.88;100615.31;5073654;28;1973;-41
2022/08/29 05:25:40;;;;;;;;;;;;;;;28.28;35.56;100609.63;5073889;28;1012;-42
2022/08/29 05:28:06;;;;;;;;;;;;;;;28.34;36.26;100614.28;5075741;28;1001;-41
2022/08/29 05:30:32;;;;;;;;;;;;;;;28.58;36.24;100614.88;5075476;28;1428;-41
2022/08/29 05:32:57;;;;;;;;;;;;;;;28.70;36.10;100615.16;5064517;28;886;-40
2022/08/29 05:35:22;;;;;;;;;;;;;;;28.75;36.10;100612.72;5068229;28;992;-41
2022/08/29 05:37:48;;;;;;;;;;;;;;;28.75;36.74;100610.00;5050782;28;981;-43
2022/08/29 05:40:13;;;;;;;;;;;;;;;28.83;36.57;100617.13;5071384;28;1083;-42
2022/08/29 05:42:39;;;;;;;;;;;;;;;28.86;35.82;100611.34;5066937;28;1901;-42
2022/08/29 05:45:04;;;;;;;;;;;;;;;28.85;36.23;100606.94;5063559;28;2476;-42
2022/08/29 05:47:30;;;;;;;;;;;;;;;28.82;35.89;100615.47;5071154;28;981;-42
2022/08/29 05:49:55;;;;;;;;;;;;;;;28.89;36.20;100610.09;5067491;28;1032;-42
2022/08/29 05:52:20;;;;;;;;;;;;;;;28.93;36.19;100612.19;5071532;28;1064;-43
2022/08/29 05:54:46;;;;;;;;;;;;;;;28.05;35.08;100614.19;5069925;28;1143;-41
2022/08/29 05:57:12;;;;;;;;;;;;;;;28.38;35.17;100615.53;5071543;28;854;-42
2022/08/29 05:59:37;;;;;;;;;;;;;;;28.55;35.39;100616.09;5072865;28;1155;-42
2022/08/29 06:02:02;;;;;;;;;;;;;;;28.76;35.58;100614.38;5075466;28;1902;-45
2022/08/29 06:04:28;;;;;;;;;;;;;;;28.84;35.75;100624.22;5076523;28;1182;-47
2022/08/29 06:06:53;;;;;;;;;;;;;;;28.90;36.25;100620.72;5063615;28;1157;-43
2022/08/29 06:09:18;;;;;;;;;;;;;;;28.85;36.31;100625.88;5065873;28;906;-41
2022/08/29 06:11:47;;;;;;;;;;;;;;;28.97;36.00;100618.09;5066749;28;1047;-41
2022/08/29 06:14:13;;;;;;;;;;;;;;;28.96;35.96;100617.22;5071533;28;1103;-43
2022/08/29 06:16:38;;;;;;;;;;;;;;;29.02;36.05;100620.19;5069851;28;1028;-41
2022/08/29 06:19:03;;;;;;;;;;;;;;;29.06;36.45;100624.19;5072274;28;1009;-42
2022/08/29 06:21:29;;;;;;;;;;;;;;;29.07;36.25;100613.16;5069834;28;948;-42
2022/08/29 06:23:55;;;;;;;;;;;;;;;29.05;35.91;100609.81;5072761;28;1975;-44
2022/08/29 06:26:20;;;;;;;;;;;;;;;29.13;36.14;100618.81;5056599;28;1036;-40
2022/08/29 06:28:45;;;;;;;;;;;;;;;29.16;36.15;100610.28;5075357;28;1152;-41
2022/08/29 06:31:14;;;;;;;;;;;;;;;29.16;36.17;100613.81;5069464;28;997;-41
2022/08/29 06:33:39;;;;;;;;;;;;;;;29.15;36.19;100614.00;5065470;28;919;-42
2022/08/29 06:36:05;;;;;;;;;;;;;;;29.17;36.47;100620.06;5067332;28;988;-42
2022/08/29 06:38:30;;;;;;;;;;;;;;;29.68;36.43;100613.44;5071068;28;1013;-43
2022/08/29 06:40:55;;;;;;;;;;;;;;;29.73;36.67;100612.00;5067773;28;1075;-44
2022/08/29 06:43:21;;;;;;;;;;;;;;;29.91;36.58;100617.66;5066295;28;1909;-43
2022/08/29 06:45:47;;;;;;;;;;;;;;;30.00;36.48;100615.59;5067120;28;993;-42
2022/08/29 06:48:12;;;;;;;;;;;;;;;29.91;36.56;100609.50;5066027;28;996;-43
2022/08/29 06:50:37;;;;;;;;;;;;;;;30.04;36.58;100610.59;5071605;28;1036;-44
2022/08/29 06:53:03;;;;;;;;;;;;;;;30.09;36.56;100609.97;5068894;28;1167;-42
2022/08/29 06:55:28;;;;;;;;;;;;;;;29.67;36.23;100605.50;5068736;28;1048;-41
2022/08/29 06:57:54;;;;;;;;;;;;;;;29.76;36.23;100611.59;5050047;28;953;-41
2022/08/29 07:00:20;;;;;;;;;;;;;;;29.80;36.29;100608.25;5074459;28;1060;-42
2022/08/29 07:02:48;;;;;;;;;;;;;;;29.82;36.20;100613.47;5074855;28;2009;-44
2022/08/29 07:05:14;;;;;;;;;;;;;;;29.89;35.95;100610.78;5073521;28;1001;-42
2022/08/29 07:07:40;;;;;;;;;;;;;;;29.89;35.70;100616.19;5073567;28;1024;-42
2022/08/29 07:10:06;;;;;;;;;;;;;;;29.91;35.71;100612.22;5068698;28;1046;-43
2022/08/29 07:12:31;;;;;;;;;;;;;;;30.00;36.15;100614.75;5074020;28;1000;-43
2022/08/29 07:14:56;;;;;;;;;;;;;;;29.89;35.97;100610.78;5072881;28;1067;-40
2022/08/29 07:17:22;;;;;;;;;;;;;;;29.86;36.14;100611.19;5075110;28;997;-42
2022/08/29 07:19:47;;;;;;;;;;;;;;;30.17;36.26;100618.75;5076472;28;1126;-42
2022/08/29 07:22:12;;;;;;;;;;;;;;;30.37;36.29;100617.13;5075147;28;1895;-47
2022/08/29 07:24:37;;;;;;;;;;;;;;;30.50;36.17;100627.13;5077533;28;1047;-41
2022/08/29 07:27:03;;;;;;;;;;;;;;;30.56;36.14;100623.59;5078079;28;1238;-41
2022/08/29 07:29:28;;;;;;;;;;;;;;;30.62;36.30;100627.34;5079386;28;1103;-41
2022/08/29 07:31:53;;;;;;;;;;;;;;;30.68;36.34;100629.19;5069728;28;941;-38
2022/08/29 07:34:19;;;;;;;;;;;;;;;30.66;36.30;100623.16;5069248;28;954;-41
2022/08/29 07:36:44;;;;;;;;;;;;;;;30.74;36.36;100627.53;5073960;28;997;-42
2022/08/29 07:39:11;;;;;;;;;;;;;;;30.76;36.48;100622.72;5070247;28;1310;-40
2022/08/29 07:41:36;;;;;;;;;;;;;;;30.83;36.33;100630.91;5075643;28;1967;-41
2022/08/29 07:44:02;;;;;;;;;;;;;;;30.88;36.28;100625.69;5068969;28;1131;-41
2022/08/29 07:46:27;;;;;;;;;;;;;;;30.61;35.90;100623.81;5067572;28;1049;-46
2022/08/29 07:48:53;;;;;;;;;;;;;;;28.77;37.89;100620.63;5074375;28;1083;-47
2022/08/29 07:51:19;;;;;;;;;;;;;;;25.97;38.69;100622.56;5071121;28;1237;-45
2022/08/29 07:53:45;;;;;;;;;;;;;;;24.73;41.82;100619.28;5074870;28;1029;-47
2022/08/29 07:56:14;;;;;;;;;;;;;;;23.95;43.58;100624.91;5074044;28;1052;-43
2022/08/29 07:58:40;;;;;;;;;;;;;;;23.77;44.81;100630.41;5076757;28;1071;-47
2022/08/29 08:01:05;;;;;;;;;;;;;;;23.79;47.95;100628.41;5077071;28;1119;-48
2022/08/29 08:03:31;;;;;;;;;;;;;;;25.80;40.50;100624.53;5059500;28;1902;-44
2022/08/29 08:05:56;;;;;;;;;;;;;;;25.25;42.51;100625.25;5078436;28;1016;-45
2022/08/29 08:08:21;;;;;;;;;;;;;;;23.99;45.51;100623.56;5067500;28;1075;-45
2022/08/29 08:10:47;;;;;;;;;;;;;;;24.75;44.83;100619.94;5070603;28;1072;-46
2022/08/29 08:13:12;;;;;;;;;;;;;;;26.31;41.65;100623.16;5071474;28;1005;-45
2022/08/29 08:15:39;;;;;;;;;;;;;;;24.17;43.85;100622.63;5070615;28;1154;-44
2022/08/29 08:18:04;;;;;;;;;;;;;;;24.25;45.67;100622.66;5074589;28;1057;-46
2022/08/29 08:20:30;;;;;;;;;;;;;;;25.96;40.85;100626.28;5070159;28;1419;-46
2022/08/29 08:22:55;;;;;;;;;;;;;;;24.27;44.85;100627.84;5071924;28;1914;-46
2022/08/29 08:25:22;;;;;;;;;;;;;;;24.45;45.69;100628.53;5074701;28;1151;-45
2022/08/29 08:27:47;;;;;;;;;;;;;;;26.08;40.89;100629.41;5077471;28;1240;-45
2022/08/29 08:30:12;;;;;;;;;;;;;;;24.15;43.84;100632.66;5077352;28;1242;-44
2022/08/29 08:32:38;;;;;;;;;;;;;;;24.94;43.50;100624.13;5071526;28;1082;-44
2022/08/29 08:35:03;;;;;;;;;;;;;;;25.84;41.85;100631.22;5072115;28;1063;-42
2022/08/29 08:37:29;;;;;;;;;;;;;;;23.90;45.63;100629.94;5067277;28;1099;-46
2022/08/29 08:39:55;;;;;;;;;;;;;;;24.87;44.09;100627.66;5073859;28;1000;-45
2022/08/29 08:42:24;;;;;;;;;;;;;;;25.93;41.86;100623.94;5070043;28;1901;-45
2022/08/29 08:44:50;;;;;;;;;;;;;;;23.79;45.16;100621.16;5040811;28;1025;-45
2022/08/29 08:47:17;;;;;;;;;;;;;;;24.72;44.72;100619.44;5072545;28;993;-45
2022/08/29 08:49:44;;;;;;;;;;;;;;;25.76;42.11;100620.50;5050666;28;1140;-44
2022/08/29 08:52:12;;;;;;;;;;;;;;;23.85;46.49;100625.06;5073170;28;1000;-44
2022/08/29 08:54:49;;;;;;;;;;;;;;;24.47;46.41;100623.00;5053433;28;974;-46
2022/08/29 08:57:14;;;;;;;;;;;;;;;25.92;42.51;100625.78;5041254;28;1012;-44
2022/08/29 08:59:41;;;;;;;;;;;;;;;23.79;45.59;100617.66;5073472;28;1259;-49
2022/08/29 09:02:07;;;;;;;;;;;;;;;24.55;45.42;100619.44;5076708;28;1911;-44
2022/08/29 09:04:51;;;;;;;;;;;;;;;25.69;42.94;100609.63;5076383;28;1143;-43
2022/08/29 09:07:31;;;;;;;;;;;;;;;23.65;47.55;100619.97;5077333;28;953;-44
2022/08/29 09:09:56;;;;;;;;;;;;;;;25.06;45.04;100613.84;5043728;28;1264;-44
2022/08/29 09:12:26;;;;;;;;;;;;;;;25.38;43.42;100615.75;5069434;28;1075;-44
2022/08/29 09:15:01;;;;;;;;;;;;;;;23.65;46.39;100619.13;5070844;28;1080;-50
2022/08/29 09:17:40;;;;;;;;;;;;;;;23.74;51.32;100610.06;5071578;28;996;-54
2022/08/29 09:20:07;;;;;;;;;;;;;;;25.98;42.87;100612.63;5053688;28;1025;-51
2022/08/29 09:22:33;;;;;;;;;;;;;;;24.08;47.74;100611.00;5071863;28;1965;-50
2022/08/29 09:25:03;;;;;;;;;;;;;;;23.21;51.67;100618.22;5074613;28;1008;-49
2022/08/29 09:27:29;;;;;;;;;;;;;;;22.91;52.82;100612.34;5075657;28;969;-49
2022/08/29 09:30:13;;;;;;;;;;;;;;;22.81;53.54;100607.09;5076318;28;1040;-45
2022/08/29 09:32:53;;;;;;;;;;;;;;;23.33;57.04;100611.59;5060451;28;1008;-46
2022/08/29 09:35:23;;;;;;;;;;;;;;;25.92;47.39;100619.56;5062026;28;981;-48
2022/08/29 09:37:58;;;;;;;;;;;;;;;24.12;48.27;100615.03;5068527;28;1056;-48
2022/08/29 09:40:23;;;;;;;;;;;;;;;23.12;48.51;100610.13;5070090;28;997;-45
2022/08/29 09:42:51;;;;;;;;;;;;;;;22.74;50.39;100610.41;5049024;28;1893;-48
2022/08/29 09:45:17;;;;;;;;;;;;;;;22.49;50.95;100606.66;5055096;28;1060;-48
2022/08/29 09:47:43;;;;;;;;;;;;;;;22.51;51.29;100610.03;5048097;28;997;-48
2022/08/29 09:50:11;;;;;;;;;;;;;;;23.99;49.93;100617.38;5068694;28;1055;-48
2022/08/29 09:52:38;;;;;;;;;;;;;;;25.14;45.82;100620.25;5071519;28;1072;-47
2022/08/29 09:55:33;;;;;;;;;;;;;;;23.33;47.94;100622.31;5052031;28;1008;-46
2022/08/29 09:58:06;;;;;;;;;;;;;;;24.53;46.99;100616.09;5048550;28;1213;-46
2022/08/29 10:00:33;;;;;;;;;;;;;;;25.05;45.17;100611.34;5074115;28;980;-45
2022/08/29 10:02:59;;;;;;;;;;;;;;;23.32;49.05;100622.50;5073948;28;1947;-44
2022/08/29 10:05:35;;;;;;;;;;;;;;;23.33;53.41;100625.00;5058304;28;1072;-47
2022/08/29 10:08:01;;;;;;;;;;;;;;;25.61;44.97;100620.41;5074845;28;1159;-46
2022/08/29 10:10:29;;;;;;;;;;;;;;;24.03;48.24;100616.88;5061729;28;1175;-47
2022/08/29 10:13:14;;;;;;;;;;;;;;;23.03;50.95;100623.66;5071283;28;980;-47
2022/08/29 10:15:42;;;;;;;;;;;;;;;24.28;49.29;100614.25;5066099;28;969;-48
2022/08/29 10:18:19;;;;;;;;;;;;;;;25.69;45.33;100612.31;5072101;28;1051;-47
2022/08/29 10:20:45;;;;;;;;;;;;;;;23.69;47.84;100621.31;5071029;28;1005;-45
2022/08/29 10:23:36;;;;;;;;;;;;;;;23.72;51.69;100620.97;5070776;28;1906;-45
2022/08/29 10:26:04;;;;;;;;;;;;;;;25.92;45.10;100631.19;5059859;28;1157;-46
2022/08/29 10:28:38;;;;;;;;;;;;;;;23.88;48.83;100624.72;5073817;28;1155;-45
2022/08/29 10:31:07;;;;;;;;;;;;;;;22.95;50.99;100625.31;5057650;28;1048;-47
2022/08/29 10:33:32;;;;;;;;;;;;;;;24.12;49.97;100628.47;5074018;28;980;-46
2022/08/29 10:36:17;;;;;;;;;;;;;;;25.76;44.82;100623.19;5064844;28;1020;-47
2022/08/29 10:38:51;;;;;;;;;;;;;;;25.21;45.30;100623.09;5049617;28;1088;-45
2022/08/29 10:41:29;;;;;;;;;;;;;;;26.51;41.56;100628.94;5070022;28;1134;-45
2022/08/29 10:44:00;;;;;;;;;;;;;;;27.09;39.15;100621.34;5065312;28;1907;-45
2022/08/29 10:46:35;;;;;;;;;;;;;;;27.33;38.07;100631.00;5062119;28;1016;-49
2022/08/29 10:49:20;;;;;;;;;;;;;;;27.61;37.59;100633.00;5064755;28;1008;-46
2022/08/29 10:51:49;;;;;;;;;;;;;;;28.04;36.44;100631.44;5039416;28;1317;-44
2022/08/29 10:54:15;;;;;;;;;;;;;;;28.31;36.25;100628.16;5071995;28;1016;-43
2022/08/29 10:56:44;;;;;;;;;;;;;;;28.56;35.77;100628.59;5069506;28;1131;-42
2022/08/29 10:59:19;;;;;;;;;;;;;;;28.70;35.58;100617.88;5071446;28;857;-44
2022/08/29 11:01:46;;;;;;;;;;;;;;;28.79;35.28;100626.69;5072518;28;1941;-43
2022/08/29 11:04:16;;;;;;;;;;;;;;;28.91;35.55;100621.56;5057242;28;1017;-45
2022/08/29 11:06:54;;;;;;;;;;;;;;;29.03;35.05;100624.59;5075500;28;1128;-48
2022/08/29 11:09:21;;;;;;;;;;;;;;;29.14;35.30;100617.78;5051518;28;1094;-44
2022/08/29 11:11:58;;;;;;;;;;;;;;;29.17;35.16;100615.50;5047390;28;1013;-45
2022/08/29 11:14:34;;;;;;;;;;;;;;;29.23;34.99;100613.84;5053500;28;1181;-45
2022/08/29 11:17:01;;;;;;;;;;;;;;;29.40;34.70;100608.09;5047266;28;1128;-46
2022/08/29 11:19:46;;;;;;;;;;;;;;;29.49;34.52;100604.19;5056587;28;1049;-44
2022/08/29 11:22:14;;;;;;;;;;;;;;;29.58;34.40;100607.53;5064411;28;1902;-44
2022/08/29 11:24:40;;;;;;;;;;;;;;;29.56;34.41;100602.31;5066187;28;1057;-44
2022/08/29 11:27:05;;;;;;;;;;;;;;;29.67;34.44;100598.22;5051272;28;1180;-45
2022/08/29 11:29:33;;;;;;;;;;;;;;;29.80;34.11;100599.28;5066001;28;1057;-43
2022/08/29 11:32:19;;;;;;;;;;;;;;;29.87;34.24;100600.13;5068906;28;941;-45
2022/08/29 11:34:51;;;;;;;;;;;;;;;29.92;34.14;100588.66;5011296;28;1165;-44
2022/08/29 11:37:49;;;;;;;;;;;;;;;29.98;33.93;100592.44;5061314;28;913;-46
2022/08/29 11:40:20;;;;;;;;;;;;;;;30.06;33.93;100587.63;5019011;28;1336;-44
2022/08/29 11:42:45;;;;;;;;;;;;;;;29.50;34.68;100584.16;5064444;28;1930;-50
2022/08/29 11:45:12;;;;;;;;;;;;;;;28.89;35.96;100588.44;5047855;28;989;-49
2022/08/29 11:47:43;;;;;;;;;;;;;;;28.66;36.31;100594.97;5050750;28;985;-46
2022/08/29 11:50:15;;;;;;;;;;;;;;;28.56;36.86;100587.19;5062377;28;1010;-44
2022/08/29 11:53:06;;;;;;;;;;;;;;;28.46;37.22;100588.34;5074444;28;1029;-46
2022/08/29 11:55:33;;;;;;;;;;;;;;;28.47;37.13;100590.03;5067213;28;1471;-44
2022/08/29 11:57:59;;;;;;;;;;;;;;;28.40;37.65;100591.00;5074391;28;1195;-47
2022/08/29 12:00:26;;;;;;;;;;;;;;;28.43;37.41;100588.75;5077235;28;1075;-46
2022/08/29 12:02:51;;;;;;;;;;;;;;;28.46;37.41;100590.25;5077294;28;1901;-46
2022/08/29 12:05:19;;;;;;;;;;;;;;;28.41;37.25;100590.81;5078361;28;1055;-43
2022/08/29 12:07:46;;;;;;;;;;;;;;;28.28;37.70;100588.78;5072033;28;1009;-43
2022/08/29 12:10:24;;;;;;;;;;;;;;;28.24;37.96;100588.34;5066709;28;1108;-43
2022/08/29 12:12:55;;;;;;;;;;;;;;;28.22;38.23;100587.72;5061459;28;973;-44
2022/08/29 12:15:26;;;;;;;;;;;;;;;28.23;37.97;100589.38;5052037;28;1512;-42
2022/08/29 12:18:16;;;;;;;;;;;;;;;28.30;38.06;100586.75;5074741;28;1124;-45
2022/08/29 12:20:42;;;;;;;;;;;;;;;28.28;38.01;100588.78;5060207;28;1295;-42
2022/08/29 12:23:10;;;;;;;;;;;;;;;28.31;38.05;100568.66;5071149;28;1902;-48
2022/08/29 12:25:41;;;;;;;;;;;;;;;28.30;38.08;100575.91;5074757;28;1179;-46
2022/08/29 12:28:22;;;;;;;;;;;;;;;28.33;38.08;100577.41;5077164;28;976;-44
2022/08/29 12:30:57;;;;;;;;;;;;;;;28.30;38.17;100583.19;5077985;28;949;-45
2022/08/29 12:33:28;;;;;;;;;;;;;;;28.30;38.03;100575.06;5072011;28;953;-49
2022/08/29 12:36:13;;;;;;;;;;;;;;;28.27;38.10;100579.03;5054818;28;925;-42
2022/08/29 12:38:53;;;;;;;;;;;;;;;28.28;38.01;100585.28;5072125;28;981;-47
2022/08/29 12:41:18;;;;;;;;;;;;;;;28.56;37.84;100577.19;5071115;28;1295;-46
2022/08/29 12:43:44;;;;;;;;;;;;;;;28.48;37.62;100575.47;5069554;28;1947;-46
2022/08/29 12:46:12;;;;;;;;;;;;;;;28.45;37.70;100569.59;5068422;28;1052;-44
2022/08/29 12:48:40;;;;;;;;;;;;;;;28.51;37.66;100578.81;5064280;28;1506;-48
2022/08/29 12:51:05;;;;;;;;;;;;;;;28.43;38.01;100571.66;5068341;28;1083;-45